Time;durP1;ratioP1;P1;durP2;ratioP2;P2;SDS_P1;SDS_P2;PMS_P1;PMS_P2;Temp;Humidity;BMP_temperature;BMP_pressure;BME280_temperature;BME280_humidity;BME280_pressure;Samples;Min_cycle;Max_cycle;Signal;HPM_P1;HPM_P2
2022/01/18 00:02:01;;;;;;;7.30;5.20;;;;;;;9.16;66.64;100160.72;4979145;28;102201;-49
2022/01/18 00:04:29;;;;;;;6.20;4.60;;;;;;;9.16;66.57;100166.16;5003142;28;103916;-49
2022/01/18 00:06:56;;;;;;;5.63;4.25;;;;;;;9.16;66.15;100177.00;5003946;28;104110;-49
2022/01/18 00:09:24;;;;;;;6.40;4.43;;;;;;;9.15;66.90;100176.19;5005755;28;103853;-50
2022/01/18 00:12:14;;;;;;;7.30;4.67;;;;;;;9.15;66.95;100178.09;5004810;28;102200;-48
2022/01/18 00:14:41;;;;;;;5.00;4.30;;;;;;;9.15;66.24;100176.19;5010257;28;102149;-47
2022/01/18 00:17:53;;;;;;;6.80;4.78;;;;;;;9.16;66.68;100177.00;5000641;28;102308;-49
2022/01/18 00:19:59;;;;;;;4.82;3.85;;;;;;;9.14;66.56;100185.41;4998274;28;102402;-48
2022/01/18 00:22:28;;;;;;;6.43;4.55;;;;;;;9.16;66.74;100179.72;5008899;28;102053;-48
2022/01/18 00:24:57;;;;;;;5.43;4.20;;;;;;;9.17;67.02;100185.97;5007502;28;106263;-48
2022/01/18 00:27:24;;;;;;;5.53;4.20;;;;;;;9.15;67.02;100197.09;5008782;28;102628;-47
2022/01/18 00:30:03;;;;;;;7.13;4.63;;;;;;;9.15;66.15;100199.81;4988757;28;103969;-48
2022/01/18 00:35:33;;;;;;;7.05;4.55;;;;;;;9.14;66.87;100204.41;4947175;28;102464;-48
2022/01/18 00:38:15;;;;;;;5.70;3.90;;;;;;;9.16;66.31;100212.31;4989256;28;102256;-48
2022/01/18 00:40:41;;;;;;;6.90;4.22;;;;;;;9.15;66.05;100205.22;5000801;28;102717;-49
2022/01/18 00:43:08;;;;;;;5.85;4.18;;;;;;;9.14;66.13;100203.59;5004857;28;102241;-49
2022/01/18 00:45:35;;;;;;;5.18;3.90;;;;;;;9.15;65.96;100216.91;5005422;28;102673;-49
2022/01/18 00:48:02;;;;;;;5.95;4.35;;;;;;;9.15;66.59;100210.66;5011772;28;102646;-48
2022/01/18 00:50:32;;;;;;;7.50;4.60;;;;;;;9.15;66.42;100206.03;5027685;27;104000;-48
2022/01/18 00:52:58;;;;;;;;;;;;;;;9.14;66.01;100198.19;5009074;28;101972;-49
2022/01/18 00:55:32;;;;;;;6.22;3.97;;;;;;;9.15;66.84;100210.66;5004537;28;102183;-49
2022/01/18 00:57:58;;;;;;;6.07;3.92;;;;;;;9.14;66.04;100214.47;5004030;28;102355;-49
2022/01/18 01:00:25;;;;;;;6.88;4.40;;;;;;;9.14;66.61;100215.28;5006730;28;103974;-48
2022/01/18 01:02:52;;;;;;;6.05;3.85;;;;;;;9.14;66.34;100212.56;5003625;28;102737;-49
2022/01/18 01:05:18;;;;;;;5.82;4.30;;;;;;;9.14;66.91;100219.91;5007896;28;102002;-48
2022/01/18 01:07:46;;;;;;;6.90;3.80;;;;;;;9.14;66.10;100219.91;5001970;28;102514;-50
2022/01/18 01:10:13;;;;;;;4.97;3.50;;;;;;;9.13;66.83;100221.00;5009047;28;103726;-47
2022/01/18 01:12:41;;;;;;;5.00;4.10;;;;;;;9.14;66.06;100230.75;5010817;28;102785;-48
2022/01/18 01:15:12;;;;;;;5.88;3.60;;;;;;;9.13;66.24;100223.72;5008387;28;102573;-48
2022/01/18 01:17:47;;;;;;;5.00;4.07;;;;;;;9.12;66.34;100233.75;5011530;28;102256;-49
2022/01/18 01:34:31;;;;;;;5.82;3.75;;;;;;;9.13;66.61;100245.44;5012119;28;102260;-49
2022/01/18 01:42:29;;;;;;;4.22;3.00;;;;;;;9.12;66.76;100241.91;5009394;28;103841;-48
2022/01/18 01:44:58;;;;;;;5.65;3.45;;;;;;;9.12;66.39;100238.34;5002313;28;101992;-48
2022/01/18 01:47:34;;;;;;;5.65;3.80;;;;;;;9.12;66.64;100238.34;5005859;28;102129;-47
2022/01/18 01:50:02;;;;;;;5.43;3.25;;;;;;;9.12;66.81;100246.50;4983455;28;102184;-48
2022/01/18 01:52:28;;;;;;;5.47;3.47;;;;;;;9.11;66.83;100247.59;4977780;28;103116;-49
2022/01/18 01:54:57;;;;;;;4.53;3.80;;;;;;;9.12;66.87;100244.63;4981328;28;102228;-49
2022/01/18 01:57:24;;;;;;;4.75;3.30;;;;;;;9.11;66.48;100245.69;4984528;28;102460;-49
2022/01/18 01:59:51;;;;;;;4.65;3.50;;;;;;;9.12;66.63;100251.91;4981922;28;102167;-48
2022/01/18 02:02:17;;;;;;;4.15;3.38;;;;;;;9.12;66.20;100255.47;4983432;28;103918;-47
2022/01/18 02:04:44;;;;;;;4.45;3.30;;;;;;;9.11;66.00;100244.88;4987530;28;102022;-48
2022/01/18 02:07:10;;;;;;;4.05;2.90;;;;;;;9.11;66.47;100251.13;4996499;28;102399;-49
2022/01/18 02:09:37;;;;;;;4.63;3.17;;;;;;;9.12;66.84;100254.63;4993280;28;102196;-49
2022/01/18 02:12:07;;;;;;;4.28;3.42;;;;;;;9.12;66.14;100249.22;4978646;28;103754;-48
2022/01/18 02:14:39;;;;;;;3.72;2.95;;;;;;;9.11;66.77;100253.00;4992883;28;104076;-49
2022/01/18 02:22:39;;;;;;;4.80;2.85;;;;;;;9.11;66.14;100263.88;5002071;28;104421;-48
2022/01/18 02:25:06;;;;;;;4.30;3.03;;;;;;;9.11;66.11;100250.31;5005228;28;102189;-48
2022/01/18 02:27:32;;;;;;;3.85;2.60;;;;;;;9.11;66.10;100263.88;5013826;28;102516;-48
2022/01/18 02:29:59;;;;;;;4.88;3.47;;;;;;;9.10;66.18;100268.50;4999643;28;102404;-48
2022/01/18 02:32:25;;;;;;;5.40;3.33;;;;;;;9.11;66.87;100269.31;5008840;28;104002;-49
2022/01/18 02:34:52;;;;;;;3.72;3.22;;;;;;;9.11;66.19;100272.03;5006958;28;102291;-48
2022/01/18 02:37:18;;;;;;;3.95;3.00;;;;;;;9.10;66.21;100268.50;5008635;28;102455;-49
2022/01/18 02:39:46;;;;;;;3.28;2.97;;;;;;;9.10;67.20;100267.69;4989487;28;102603;-48
2022/01/18 02:42:16;;;;;;;4.53;3.30;;;;;;;9.09;66.87;100266.88;5002555;28;104382;-48
2022/01/18 02:44:43;;;;;;;5.28;3.00;;;;;;;9.10;66.18;100279.34;5009871;28;102337;-48
2022/01/18 02:47:10;;;;;;;4.80;3.30;;;;;;;9.10;66.76;100273.13;5009436;28;102397;-49
2022/01/18 02:49:37;;;;;;;3.90;2.80;;;;;;;9.10;66.80;100273.91;5004978;28;102570;-48
2022/01/18 02:52:04;;;;;;;4.72;3.13;;;;;;;9.10;66.99;100283.97;5004985;28;104027;-47
2022/01/18 02:54:31;;;;;;;3.95;2.97;;;;;;;9.09;66.95;100271.50;5006578;28;102545;-48
2022/01/18 02:57:01;;;;;;;4.70;2.75;;;;;;;9.10;67.01;100273.13;5008183;28;102077;-48
2022/01/18 03:03:17;;;;;;;3.97;3.17;;;;;;;9.08;66.11;100284.22;5002629;28;104040;-48
2022/01/18 03:05:13;;;;;;;4.05;2.80;;;;;;;9.08;65.96;100286.13;4997738;28;102371;-49
2022/01/18 03:07:40;;;;;;;3.63;2.53;;;;;;;9.09;66.25;100282.34;5004550;28;102198;-48
2022/01/18 03:10:12;;;;;;;5.15;2.70;;;;;;;9.09;66.95;100279.63;4998849;28;102044;-49
2022/01/18 03:12:40;;;;;;;5.15;3.28;;;;;;;9.09;66.94;100276.91;5002270;28;104087;-49
2022/01/18 03:15:09;;;;;;;3.22;2.45;;;;;;;9.09;66.72;100283.16;5003964;28;102565;-48
2022/01/18 03:17:37;;;;;;;4.68;3.03;;;;;;;9.09;66.61;100293.22;4997836;28;102485;-49
2022/01/18 03:20:05;;;;;;;4.10;3.00;;;;;;;9.08;67.17;100289.66;5012174;28;102620;-47
2022/01/18 03:22:33;;;;;;;4.43;2.63;;;;;;;9.08;66.54;100276.09;5006842;28;103886;-48
2022/01/18 03:25:24;;;;;;;4.15;2.80;;;;;;;9.08;66.15;100291.56;4997767;28;102655;-48
2022/01/18 03:28:07;;;;;;;4.22;2.75;;;;;;;9.09;66.37;100295.94;5008978;28;102396;-49
2022/01/18 03:30:36;;;;;;;3.75;2.50;;;;;;;9.07;66.55;100295.38;5007738;28;102198;-47
2022/01/18 03:33:04;;;;;;;5.68;3.05;;;;;;;9.09;65.82;100312.22;5006622;28;103696;-48
2022/01/18 03:35:32;;;;;;;3.70;2.40;;;;;;;9.08;66.11;100308.66;5010974;28;102484;-49
2022/01/18 03:37:58;;;;;;;3.95;2.30;;;;;;;9.08;66.96;100307.84;5015629;28;102720;-49
2022/01/18 03:40:25;;;;;;;3.78;2.25;;;;;;;9.08;66.30;100316.00;5009585;28;102715;-49
2022/01/18 03:42:55;;;;;;;4.15;2.75;;;;;;;9.07;66.21;100317.09;5007704;28;103931;-49
2022/01/18 03:45:25;;;;;;;4.07;2.50;;;;;;;9.07;66.05;100323.31;5002316;28;102215;-49
2022/01/18 03:47:52;;;;;;;4.65;2.83;;;;;;;9.07;66.68;100336.09;5009687;28;102244;-48
2022/01/18 03:50:18;;;;;;;4.00;3.00;;;;;;;9.08;65.92;100335.00;5010857;28;102625;-49
2022/01/18 03:52:46;;;;;;;3.33;2.35;;;;;;;9.08;66.74;100338.50;5001977;28;104109;-49
2022/01/18 03:55:15;;;;;;;4.18;2.55;;;;;;;9.08;66.83;100335.00;5002496;28;102141;-48
2022/01/18 03:57:41;;;;;;;4.60;2.65;;;;;;;9.08;66.00;100340.41;4998019;28;102428;-47
2022/01/18 04:00:15;;;;;;;3.13;2.15;;;;;;;9.08;66.23;100330.38;5005538;28;102168;-48
2022/01/18 04:02:42;;;;;;;3.30;2.50;;;;;;;9.08;66.06;100340.41;5001123;28;104029;-49
2022/01/18 04:05:09;;;;;;;3.38;2.20;;;;;;;9.07;66.17;100355.09;4997271;28;102188;-48
2022/01/18 04:07:36;;;;;;;3.78;2.47;;;;;;;9.08;66.37;100351.28;5007251;28;102425;-49
2022/01/18 04:10:03;;;;;;;5.05;2.30;;;;;;;9.07;66.99;100357.81;5014340;28;102224;-50
2022/01/18 04:12:29;;;;;;;2.60;2.30;;;;;;;9.07;66.49;100349.66;5006439;28;103895;-49
2022/01/18 04:14:57;;;;;;;2.90;2.08;;;;;;;9.08;66.12;100359.44;5004171;28;102252;-48
2022/01/18 04:17:51;;;;;;;3.85;2.60;;;;;;;9.07;66.24;100360.50;5009304;28;102552;-49
2022/01/18 04:26:03;;;;;;;2.90;2.20;;;;;;;9.06;66.21;100370.56;5004078;28;102291;-48
2022/01/18 04:28:43;;;;;;;3.42;2.50;;;;;;;9.08;66.44;100364.84;5012659;28;102044;-48
2022/01/18 04:31:10;;;;;;;3.17;2.20;;;;;;;9.07;65.82;100365.94;5013618;28;102221;-49
2022/01/18 04:33:39;;;;;;;2.92;2.15;;;;;;;9.07;66.67;100361.31;5015441;28;104151;-49
2022/01/18 04:36:08;;;;;;;2.93;1.83;;;;;;;9.07;66.35;100383.03;5012135;28;102280;-49
2022/01/18 04:38:35;;;;;;;3.87;2.30;;;;;;;9.07;66.30;100374.09;5010415;28;102414;-49
2022/01/18 04:41:09;;;;;;;2.80;2.10;;;;;;;9.08;67.13;100383.84;5009988;28;102586;-48
2022/01/18 04:49:29;;;;;;;2.97;2.10;;;;;;;9.06;66.14;100407.75;4968389;28;102067;-47
2022/01/18 04:51:56;;;;;;;2.78;2.00;;;;;;;9.07;65.91;100414.81;5012602;28;102539;-48
2022/01/18 04:54:29;;;;;;;3.75;2.30;;;;;;;9.06;66.71;100415.91;5015228;28;103958;-48
2022/01/18 04:59:22;;;;;;;3.13;2.00;;;;;;;9.06;66.87;100430.28;5010776;28;102200;-48
2022/01/18 05:01:50;;;;;;;2.53;2.00;;;;;;;9.06;66.94;100434.91;5008422;28;102662;-48
2022/01/18 05:04:17;;;;;;;2.55;1.85;;;;;;;9.06;66.95;100426.75;5014923;28;104005;-47
2022/01/18 05:06:47;;;;;;;3.13;2.10;;;;;;;9.05;66.82;100436.81;5005434;28;102734;-48
2022/01/18 05:09:14;;;;;;;3.13;2.00;;;;;;;9.06;66.52;100467.47;5005838;28;102005;-48
2022/01/18 05:14:32;;;;;;;2.53;1.52;;;;;;;9.04;66.88;100462.28;5004179;28;102758;-48
2022/01/18 05:17:08;;;;;;;3.35;1.83;;;;;;;9.05;66.33;100473.97;5002265;28;102217;-48
2022/01/18 05:25:08;;;;;;;2.10;1.70;;;;;;;9.03;67.08;100498.69;5005055;28;108043;-48
2022/01/18 05:27:35;;;;;;;2.85;1.50;;;;;;;9.04;65.85;100502.19;5006122;28;102505;-51
2022/01/18 05:30:03;;;;;;;2.10;1.52;;;;;;;9.03;66.78;100500.59;5004923;28;102238;-48
2022/01/18 05:32:29;;;;;;;2.85;1.75;;;;;;;9.02;65.98;100517.97;5004915;28;102377;-48
2022/01/18 05:34:56;;;;;;;2.17;1.60;;;;;;;9.02;65.95;100526.91;5013464;28;104081;-49
2022/01/18 05:37:24;;;;;;;3.42;1.70;;;;;;;9.01;66.55;100511.69;5001850;28;102759;-47
2022/01/18 05:39:50;;;;;;;2.58;1.58;;;;;;;9.02;65.75;100539.69;5001680;28;102139;-49
2022/01/18 05:42:17;;;;;;;3.00;1.60;;;;;;;9.01;65.86;100548.88;5005739;28;102301;-47
2022/01/18 05:44:43;;;;;;;2.72;1.40;;;;;;;9.00;65.99;100533.69;5002936;28;104592;-47
2022/01/18 05:47:10;;;;;;;1.63;1.20;;;;;;;9.01;65.93;100544.25;5005509;28;103520;-48
2022/01/18 05:49:36;;;;;;;2.72;1.50;;;;;;;9.01;65.90;100546.16;5006605;28;102962;-48
2022/01/18 05:52:05;;;;;;;3.53;1.40;;;;;;;9.00;66.67;100556.22;4979214;28;102576;-48
2022/01/18 05:54:33;;;;;;;1.92;1.50;;;;;;;9.00;66.42;100547.25;5011153;28;103516;-49
2022/01/18 05:57:00;;;;;;;1.50;1.17;;;;;;;9.00;65.80;100547.25;5000446;28;102172;-48
2022/01/18 05:59:34;;;;;;;1.67;1.40;;;;;;;9.00;66.09;100550.78;5005490;28;102420;-48
2022/01/18 06:02:13;;;;;;;2.05;1.40;;;;;;;8.99;66.02;100556.47;5006478;28;102400;-48
2022/01/18 06:07:26;;;;;;;2.13;1.23;;;;;;;8.98;65.77;100580.09;5006553;28;104678;-48
2022/01/18 06:09:56;;;;;;;1.50;1.40;;;;;;;8.98;65.92;100585.53;5008180;28;106107;-48
2022/01/18 06:12:23;;;;;;;1.95;1.30;;;;;;;8.99;66.64;100597.19;4999614;28;102337;-49
2022/01/18 06:14:50;;;;;;;2.25;1.17;;;;;;;8.98;65.78;100599.09;5002544;28;103908;-50
2022/01/18 06:17:16;;;;;;;2.15;1.30;;;;;;;8.98;65.83;100607.25;5003474;28;104026;-49
2022/01/18 06:19:43;;;;;;;2.72;1.40;;;;;;;8.99;65.62;100608.06;5001533;28;102358;-49
2022/01/18 06:22:10;;;;;;;2.00;1.70;;;;;;;8.98;66.05;100622.69;4999725;28;102136;-48
2022/01/18 06:24:37;;;;;;;1.38;1.23;;;;;;;8.99;65.85;100629.78;5005348;28;104065;-48
2022/01/18 06:27:05;;;;;;;1.73;1.35;;;;;;;8.98;65.59;100636.25;5008295;28;102094;-48
2022/01/18 06:29:32;;;;;;;2.30;1.27;;;;;;;8.97;66.59;100634.63;5011902;28;103581;-48
2022/01/18 06:31:59;;;;;;;1.67;1.25;;;;;;;8.97;65.75;100659.06;5003629;28;102498;-49
2022/01/18 06:34:26;;;;;;;2.65;1.25;;;;;;;8.97;65.78;100664.50;5005825;28;104423;-48
2022/01/18 06:36:52;;;;;;;1.52;1.20;;;;;;;8.96;65.78;100663.69;5002500;28;102633;-49
2022/01/18 06:39:19;;;;;;;1.45;1.20;;;;;;;8.96;65.78;100676.44;5001971;28;102157;-48
2022/01/18 06:41:46;;;;;;;2.03;1.38;;;;;;;8.96;66.03;100679.97;5007138;28;102225;-48
2022/01/18 06:44:14;;;;;;;2.70;1.27;;;;;;;8.98;66.22;100687.81;5006794;28;103906;-48
2022/01/18 06:46:41;;;;;;;1.57;1.07;;;;;;;8.97;65.80;100692.44;5005164;28;102443;-49
2022/01/18 06:49:08;;;;;;;2.42;1.40;;;;;;;8.97;66.36;100697.88;5009247;28;102304;-49
2022/01/18 06:51:36;;;;;;;2.13;1.30;;;;;;;8.97;66.59;100705.19;5009700;28;102312;-49
2022/01/18 06:54:03;;;;;;;1.88;1.10;;;;;;;8.97;66.15;100713.34;5010808;28;104252;-49
2022/01/18 06:56:30;;;;;;;2.67;1.40;;;;;;;8.97;65.41;100718.78;5000674;28;102427;-48
2022/01/18 06:58:56;;;;;;;1.40;1.00;;;;;;;8.97;65.95;100724.19;4996533;28;102105;-48
2022/01/18 07:01:24;;;;;;;2.13;1.30;;;;;;;8.97;65.48;100735.06;5001183;28;105287;-47
2022/01/18 07:03:51;;;;;;;2.60;1.33;;;;;;;8.96;66.23;100734.25;4997176;28;103965;-48
2022/01/18 07:06:17;;;;;;;2.22;1.30;;;;;;;8.97;66.09;100733.16;5004418;28;102112;-48
2022/01/18 07:08:44;;;;;;;1.88;1.35;;;;;;;8.96;66.39;100728.81;4987866;28;102923;-48
2022/01/18 07:11:12;;;;;;;1.25;1.15;;;;;;;8.97;65.60;100748.63;5002655;28;103023;-48
2022/01/18 07:13:38;;;;;;;1.92;1.20;;;;;;;8.96;65.68;100757.84;4996605;28;104369;-49
2022/01/18 07:16:05;;;;;;;1.88;1.10;;;;;;;8.97;65.33;100756.78;5012578;28;103080;-49
2022/01/18 07:18:32;;;;;;;2.38;1.05;;;;;;;8.97;66.36;100767.63;5002982;28;102336;-47
2022/01/18 07:20:59;;;;;;;1.98;1.23;;;;;;;8.97;65.35;100756.78;4978555;28;102171;-49
2022/01/18 07:23:26;;;;;;;1.77;1.20;;;;;;;8.96;65.43;100764.09;5005417;28;104231;-49
2022/01/18 07:25:53;;;;;;;3.67;1.23;;;;;;;8.96;65.52;100780.38;5013835;28;102380;-49
2022/01/18 07:28:20;;;;;;;1.55;1.05;;;;;;;8.96;65.65;100760.56;5001102;27;102836;-48
2022/01/18 07:30:47;;;;;;;3.30;1.38;;;;;;;8.96;65.89;100763.28;5008367;28;102184;-48
2022/01/18 07:33:15;;;;;;;1.73;1.20;;;;;;;8.95;65.75;100770.63;4985805;28;104128;-49
2022/01/18 07:35:44;;;;;;;2.58;1.40;;;;;;;8.96;65.80;100768.72;4977877;28;102542;-49
2022/01/18 07:38:15;;;;;;;2.33;1.40;;;;;;;8.95;66.03;100772.53;4985739;28;102293;-48
2022/01/18 07:40:43;;;;;;;1.38;0.98;;;;;;;8.95;65.19;100788.81;4985018;28;102415;-48
2022/01/18 07:43:11;;;;;;;2.67;1.50;;;;;;;8.95;66.18;100789.63;4983337;28;103840;-48
2022/01/18 07:45:38;;;;;;;2.13;1.20;;;;;;;8.94;65.87;100796.09;4984057;28;102144;-48
2022/01/18 07:48:04;;;;;;;1.77;1.10;;;;;;;8.94;66.05;100811.56;4984105;28;102458;-49
2022/01/18 07:50:31;;;;;;;2.08;1.17;;;;;;;8.93;65.91;100810.75;4989026;28;102347;-49
2022/01/18 07:52:59;;;;;;;2.47;1.30;;;;;;;8.94;65.50;100808.84;4981162;28;102658;-48
2022/01/18 07:55:25;;;;;;;2.35;1.48;;;;;;;8.94;65.49;100817.81;4984421;28;102605;-49
2022/01/18 07:57:54;;;;;;;2.55;1.40;;;;;;;8.93;65.69;100827.03;4990221;28;102124;-47
2022/01/18 08:00:20;;;;;;;1.45;1.30;;;;;;;8.93;66.12;100826.22;4982586;28;102349;-48
2022/01/18 08:02:47;;;;;;;2.28;1.48;;;;;;;8.93;65.72;100831.66;4986134;28;104099;-49
2022/01/18 08:05:14;;;;;;;3.63;1.63;;;;;;;8.93;65.32;100831.66;4983431;28;103501;-47
2022/01/18 08:07:42;;;;;;;2.35;1.45;;;;;;;8.92;65.29;100846.31;4991639;28;101970;-49
2022/01/18 08:10:13;;;;;;;2.45;1.45;;;;;;;8.92;65.42;100835.47;4986970;28;102767;-48
2022/01/18 08:12:40;;;;;;;2.30;1.40;;;;;;;8.92;65.61;100843.59;4982562;28;104041;-49
2022/01/18 08:15:17;;;;;;;3.33;1.88;;;;;;;8.92;65.47;100849.03;4982413;28;102225;-49
2022/01/18 08:17:46;;;;;;;1.42;1.33;;;;;;;8.92;65.35;100857.16;4964323;28;102161;-49
2022/01/18 08:20:13;;;;;;;1.63;1.40;;;;;;;8.91;66.14;100867.22;4989016;28;102845;-48
2022/01/18 08:22:41;;;;;;;1.90;1.15;;;;;;;8.89;65.88;100862.03;4982650;28;103628;-48
2022/01/18 08:25:08;;;;;;;2.33;1.50;;;;;;;8.89;65.91;100872.88;4982891;28;103332;-49
2022/01/18 08:27:37;;;;;;;2.65;1.40;;;;;;;8.89;65.65;100870.16;5001108;27;103542;-48
2022/01/18 08:30:06;;;;;;;2.10;1.30;;;;;;;8.89;65.75;100875.59;5004516;28;102817;-47
2022/01/18 08:32:36;;;;;;;2.25;1.40;;;;;;;8.90;65.58;100898.94;5005914;28;104247;-48
2022/01/18 08:35:03;;;;;;;1.55;1.45;;;;;;;8.89;65.23;100891.88;5007978;28;102520;-48
2022/01/18 08:37:31;;;;;;;1.90;1.50;;;;;;;8.88;65.70;100895.69;5011851;28;104478;-47
2022/01/18 08:39:57;;;;;;;2.75;1.60;;;;;;;8.88;65.09;100894.88;5008172;28;102506;-48
2022/01/18 08:42:24;;;;;;;2.95;1.90;;;;;;;8.88;65.18;100895.69;5009731;28;103916;-48
2022/01/18 08:44:53;;;;;;;2.25;1.70;;;;;;;8.87;64.83;100893.19;5004480;28;103874;-48
2022/01/18 08:47:20;;;;;;;2.70;1.60;;;;;;;8.86;65.84;100892.38;5006436;28;102618;-48
2022/01/18 08:49:47;;;;;;;2.88;1.77;;;;;;;8.86;65.61;100889.66;5008553;28;102165;-48
2022/01/18 08:52:14;;;;;;;3.33;1.75;;;;;;;8.86;65.10;100886.97;5005901;28;104148;-47
2022/01/18 08:54:42;;;;;;;2.15;1.60;;;;;;;8.86;66.06;100886.16;4990534;28;102298;-48
2022/01/18 08:57:10;;;;;;;2.93;1.77;;;;;;;8.85;64.90;100889.94;4988529;28;103780;-49
2022/01/18 08:59:38;;;;;;;3.35;1.85;;;;;;;8.84;65.73;100894.56;5002531;28;103387;-48
2022/01/18 09:02:08;;;;;;;3.13;1.75;;;;;;;8.84;65.58;100905.41;5008373;28;102763;-49
2022/01/18 09:04:37;;;;;;;1.85;1.48;;;;;;;8.85;65.63;100917.91;5009948;28;101991;-48
2022/01/18 09:07:08;;;;;;;1.43;1.30;;;;;;;8.84;65.10;100921.69;5008225;28;103694;-48
2022/01/18 09:09:35;;;;;;;3.28;1.90;;;;;;;8.83;65.41;100925.47;5016739;28;102342;-49
2022/01/18 09:12:02;;;;;;;3.10;1.85;;;;;;;8.83;65.17;100944.47;5002662;28;103649;-48
2022/01/18 09:14:30;;;;;;;2.60;1.80;;;;;;;8.82;65.03;100940.09;5024642;28;102602;-48
2022/01/18 09:16:56;;;;;;;2.30;1.63;;;;;;;8.82;65.38;100945.53;5012450;27;102223;-48
2022/01/18 09:19:24;;;;;;;4.38;2.10;;;;;;;8.81;64.79;100960.19;5012594;28;102326;-48
2022/01/18 09:21:51;;;;;;;3.40;1.90;;;;;;;8.81;65.43;100959.38;5003744;28;103972;-48
2022/01/18 09:24:17;;;;;;;5.82;2.10;;;;;;;8.80;64.82;100969.41;5003551;28;102213;-48
2022/01/18 09:26:44;;;;;;;3.85;2.22;;;;;;;8.80;64.78;100965.84;5009994;28;102389;-49
2022/01/18 09:29:12;;;;;;;3.88;2.17;;;;;;;8.80;65.15;100969.41;5010274;28;102241;-48
2022/01/18 09:31:47;;;;;;;3.05;2.20;;;;;;;8.80;65.08;100964.00;5007056;28;103017;-47
2022/01/18 09:34:14;;;;;;;3.50;1.92;;;;;;;8.80;65.57;100963.13;5032025;27;102618;-48
2022/01/18 09:36:42;;;;;;;3.17;2.00;;;;;;;8.79;65.56;100973.19;5009683;28;102446;-49
2022/01/18 09:39:09;;;;;;;3.60;2.30;;;;;;;8.79;64.69;100958.78;5000728;28;104472;-48
2022/01/18 09:41:40;;;;;;;2.83;1.80;;;;;;;8.79;65.42;100965.03;5002196;28;105278;-47
2022/01/18 09:44:08;;;;;;;3.40;1.90;;;;;;;8.79;64.63;100978.59;5000594;28;102508;-48
2022/01/18 09:46:35;;;;;;;3.38;1.88;;;;;;;8.79;65.18;100975.06;4998146;28;102294;-48
2022/01/18 09:49:05;;;;;;;2.85;2.03;;;;;;;8.79;65.08;100962.31;4981291;28;102632;-49
2022/01/18 09:51:33;;;;;;;3.78;1.67;;;;;;;8.79;65.44;100962.31;4995108;28;104391;-48
2022/01/18 09:54:02;;;;;;;3.83;1.80;;;;;;;8.78;65.19;100960.69;5002108;28;102249;-49
2022/01/18 09:56:29;;;;;;;2.22;1.77;;;;;;;8.78;65.16;100965.31;4989173;28;102386;-49
2022/01/18 09:58:56;;;;;;;2.92;1.90;;;;;;;8.78;65.04;100960.69;5000917;28;102312;-48
2022/01/18 10:01:25;;;;;;;3.15;1.92;;;;;;;8.78;65.70;100960.69;4995635;28;103882;-48
2022/01/18 10:03:52;;;;;;;2.95;1.73;;;;;;;8.77;64.70;100956.34;5001732;28;102545;-48
2022/01/18 10:06:21;;;;;;;3.03;1.77;;;;;;;8.77;64.85;100945.50;5002678;28;102873;-48
2022/01/18 10:08:49;;;;;;;1.80;1.30;;;;;;;8.78;64.54;100940.88;5011079;28;102200;-48
2022/01/18 10:11:18;;;;;;;2.88;2.00;;;;;;;8.78;64.75;100941.69;5000874;28;103751;-48
2022/01/18 10:13:49;;;;;;;2.10;1.70;;;;;;;8.77;65.30;100945.50;4994216;28;103176;-49
2022/01/18 10:16:19;;;;;;;2.72;1.77;;;;;;;8.77;65.43;100940.06;4997469;28;102601;-49
2022/01/18 10:18:49;;;;;;;2.42;2.10;;;;;;;8.76;64.35;100935.69;5003527;28;102250;-47
2022/01/18 10:21:28;;;;;;;2.42;1.83;;;;;;;8.76;64.30;100946.53;5003468;28;103996;-49
2022/01/18 10:24:11;;;;;;;3.13;1.80;;;;;;;8.76;64.96;100951.97;4997373;28;102544;-48
2022/01/18 10:26:42;;;;;;;2.40;1.88;;;;;;;8.75;64.85;100955.78;5003295;28;102875;-49
2022/01/18 10:29:11;;;;;;;3.83;2.08;;;;;;;8.75;64.82;100950.34;5003054;28;102602;-49
2022/01/18 10:31:57;;;;;;;2.85;1.73;;;;;;;8.75;65.03;100955.78;5002057;28;103072;-49
2022/01/18 10:34:39;;;;;;;1.80;1.55;;;;;;;8.75;64.83;100966.63;5001157;28;102600;-48
2022/01/18 10:37:09;;;;;;;6.97;2.05;;;;;;;8.75;64.44;100966.63;4999300;28;102154;-48
2022/01/18 10:39:37;;;;;;;3.00;1.80;;;;;;;8.75;64.90;100991.03;5008567;28;102735;-50
2022/01/18 10:42:18;;;;;;;2.58;1.60;;;;;;;8.74;64.24;100986.69;5004163;28;104221;-49
2022/01/18 10:44:47;;;;;;;3.58;2.42;;;;;;;8.75;64.36;100982.91;5002914;28;102298;-51
2022/01/18 10:47:16;;;;;;;2.97;1.93;;;;;;;8.73;64.91;100998.63;4984682;28;103704;-50
2022/01/18 10:49:47;;;;;;;2.95;2.03;;;;;;;8.75;64.91;100988.34;4986898;28;102711;-50
2022/01/18 10:52:18;;;;;;;2.63;1.67;;;;;;;8.74;64.86;101002.97;4989897;28;106940;-47
2022/01/18 10:54:47;;;;;;;2.65;1.73;;;;;;;8.74;64.86;101002.97;4979010;28;102847;-47
2022/01/18 10:57:19;;;;;;;2.15;1.75;;;;;;;8.73;64.81;101001.34;4998894;28;103438;-48
2022/01/18 10:59:47;;;;;;;2.88;2.00;;;;;;;8.74;64.45;101002.97;5007249;28;102226;-49
2022/01/18 11:02:17;;;;;;;;;;;;;;;8.74;64.62;100991.31;5005366;28;102366;-48
2022/01/18 11:04:47;;;;;;;5.20;2.10;;;;;;;8.74;65.00;100994.84;4999813;28;102431;-48
2022/01/18 11:07:16;;;;;;;2.97;1.77;;;;;;;8.75;64.49;101003.78;5001692;28;102193;-48
2022/01/18 11:09:42;;;;;;;2.67;1.63;;;;;;;8.74;64.22;101008.41;5007133;28;102378;-49
2022/01/18 11:12:10;;;;;;;2.35;1.88;;;;;;;8.74;64.50;100997.56;4983215;28;103919;-48
2022/01/18 11:14:59;;;;;;;2.35;1.70;;;;;;;8.74;65.00;100997.56;5006794;28;102069;-47
2022/01/18 11:17:27;;;;;;;3.72;2.20;;;;;;;8.74;64.86;101002.97;5000596;28;102657;-49
2022/01/18 11:19:56;;;;;;;3.05;2.00;;;;;;;8.73;64.49;100998.63;5009976;28;101935;-48
2022/01/18 11:22:25;;;;;;;3.35;2.15;;;;;;;8.73;64.73;100998.63;5002836;28;103980;-48
2022/01/18 11:24:56;;;;;;;3.50;2.13;;;;;;;8.73;64.37;101014.91;5008060;28;102244;-48
2022/01/18 11:27:23;;;;;;;3.58;2.08;;;;;;;8.73;64.35;101017.63;5001692;28;102124;-49
2022/01/18 11:29:51;;;;;;;3.33;2.10;;;;;;;8.73;64.36;101033.06;5012538;28;102219;-49
2022/01/18 11:32:19;;;;;;;;;;;;;;;8.74;64.17;101034.72;4999552;28;106637;-47
2022/01/18 11:34:55;;;;;;;4.03;2.20;;;;;;;8.73;64.04;101033.91;5001035;28;102196;-47
2022/01/18 11:37:31;;;;;;;2.97;1.95;;;;;;;8.72;64.14;101034.97;4999301;28;103970;-47
2022/01/18 11:40:00;;;;;;;4.38;2.13;;;;;;;8.72;64.21;101029.53;5011952;28;102557;-48
2022/01/18 11:42:46;;;;;;;4.55;2.35;;;;;;;8.72;64.46;101021.38;5011688;27;103931;-49
2022/01/18 11:45:37;;;;;;;4.05;2.20;;;;;;;8.71;64.26;101022.47;4985581;28;107216;-47
2022/01/18 11:48:08;;;;;;;4.43;2.20;;;;;;;8.72;64.60;101032.25;4992945;28;102175;-48
2022/01/18 11:50:37;;;;;;;5.38;2.53;;;;;;;8.73;63.81;101028.47;5000922;28;102976;-49
2022/01/18 11:53:25;;;;;;;4.07;2.45;;;;;;;8.72;64.57;101040.38;4994580;28;104189;-48
2022/01/18 11:55:55;;;;;;;3.67;2.30;;;;;;;8.73;63.84;101038.50;4977625;28;104516;-48
2022/01/18 11:58:22;;;;;;;5.40;2.72;;;;;;;8.71;64.55;101036.03;4980202;28;103708;-48
2022/01/18 12:00:55;;;;;;;4.43;2.60;;;;;;;8.71;64.00;101041.47;4997770;27;102409;-48
2022/01/18 12:03:26;;;;;;;5.18;3.10;;;;;;;8.72;64.32;101067.53;4999157;28;105307;-48
2022/01/18 12:05:53;;;;;;;4.63;2.70;;;;;;;8.72;64.66;101064.81;4992042;28;102251;-48
2022/01/18 12:08:33;;;;;;;3.70;2.22;;;;;;;8.71;64.08;101065.88;4977257;28;102499;-47
2022/01/18 12:11:01;;;;;;;3.88;2.33;;;;;;;8.71;64.61;101052.31;4986789;28;102316;-47
2022/01/18 12:13:33;;;;;;;6.22;2.42;;;;;;;8.71;64.40;101052.31;4977985;28;102919;-49
2022/01/18 12:16:04;;;;;;;4.05;2.42;;;;;;;8.72;63.45;101058.56;4985509;28;103034;-48
2022/01/18 12:18:32;;;;;;;4.68;2.78;;;;;;;8.72;63.99;101064.81;4981447;28;102899;-48
2022/01/18 12:21:00;;;;;;;5.70;2.95;;;;;;;8.72;64.33;101066.69;4982590;28;102673;-47
2022/01/18 12:23:39;;;;;;;5.60;2.90;;;;;;;8.71;63.59;101068.59;4979918;28;104029;-48
2022/01/18 12:26:28;;;;;;;6.22;3.17;;;;;;;8.72;64.14;101053.94;4978722;28;103891;-48
2022/01/18 12:29:17;;;;;;;6.53;2.90;;;;;;;8.70;63.86;101056.13;4984470;28;103561;-46
2022/01/18 12:34:34;;;;;;;4.50;2.60;;;;;;;8.72;64.19;101053.94;5005150;28;103143;-48
2022/01/18 12:37:33;;;;;;;5.57;3.08;;;;;;;8.71;64.69;101063.19;4990242;28;102685;-48